createdAt,value
2018-11-01T00:00:43.791Z,14.93
2018-11-01T00:03:14.866Z,13.70
2018-11-01T00:05:45.816Z,14.80
2018-11-01T00:08:17.923Z,13.73
2018-11-01T00:10:49.193Z,13.47
2018-11-01T00:13:20.451Z,12.63
2018-11-01T00:15:51.788Z,12.83
2018-11-01T00:18:22.960Z,13.57
2018-11-01T00:20:53.954Z,12.47
2018-11-01T00:23:25.206Z,13.23
2018-11-01T00:25:56.287Z,13.27
2018-11-01T00:28:27.364Z,13.43
2018-11-01T00:30:58.563Z,13.83
2018-11-01T00:33:29.718Z,13.83
2018-11-01T00:36:00.918Z,13.83
2018-11-01T00:38:32.680Z,13.50
2018-11-01T00:41:03.745Z,15.43
2018-11-01T00:43:34.932Z,15.80
2018-11-01T00:46:07.330Z,15.23
2018-11-01T00:48:38.952Z,15.07
2018-11-01T00:51:10.340Z,13.93
2018-11-01T00:53:41.676Z,13.27
2018-11-01T00:56:12.832Z,14.23
2018-11-01T00:58:43.833Z,13.17
2018-11-01T01:01:15.702Z,13.60
2018-11-01T01:03:46.934Z,13.03
2018-11-01T01:06:18.484Z,14.30
2018-11-01T01:08:49.807Z,14.67
2018-11-01T01:11:20.744Z,15.30
2018-11-01T01:13:51.768Z,15.23
2018-11-01T01:16:22.944Z,16.30
2018-11-01T01:18:54.191Z,17.47
2018-11-01T01:21:25.317Z,17.70
2018-11-01T01:23:56.518Z,18.27
2018-11-01T01:26:27.703Z,18.07
2018-11-01T01:28:58.933Z,18.67
2018-11-01T01:31:30.037Z,19.40
2018-11-01T01:34:01.073Z,19.70
2018-11-01T01:36:32.277Z,19.80
2018-11-01T01:39:04.055Z,20.33
2018-11-01T01:41:35.235Z,20.60
2018-11-01T01:44:07.244Z,21.43
2018-11-01T01:46:38.448Z,20.10
2018-11-01T01:49:10.399Z,20.47
2018-11-01T01:51:41.395Z,19.40
2018-11-01T01:54:12.683Z,19.83
2018-11-01T01:56:43.971Z,19.43
2018-11-01T01:59:15.468Z,19.77
2018-11-01T02:01:47.123Z,19.70
2018-11-01T02:04:18.330Z,19.17
2018-11-01T02:06:49.323Z,18.27
2018-11-01T02:09:20.563Z,17.53
2018-11-01T02:11:51.825Z,17.60
2018-11-01T02:14:23.106Z,16.53
2018-11-01T02:16:54.593Z,16.83
2018-11-01T02:19:26.183Z,16.53
2018-11-01T02:21:57.287Z,18.10
2018-11-01T02:24:28.460Z,17.57
2018-11-01T02:26:59.654Z,18.47
2018-11-01T02:29:30.726Z,17.70
2018-11-01T02:32:02.103Z,15.97
2018-11-01T02:34:33.063Z,16.00
2018-11-01T02:37:04.551Z,16.80
2018-11-01T02:39:35.778Z,17.17
2018-11-01T02:42:06.827Z,22.07
2018-11-01T02:44:38.303Z,34.63
2018-11-01T02:47:09.381Z,26.80
2018-11-01T02:49:40.576Z,23.93
2018-11-01T02:52:12.354Z,20.57
2018-11-01T02:54:43.363Z,17.80
2018-11-01T02:57:14.874Z,15.70
2018-11-01T02:59:46.137Z,14.77
2018-11-01T03:02:17.147Z,15.57
2018-11-01T03:04:48.144Z,15.77
2018-11-01T03:07:19.415Z,16.00
2018-11-01T03:09:51.064Z,15.63
2018-11-01T03:12:22.791Z,15.50
2018-11-01T03:14:54.967Z,15.50
2018-11-01T03:17:26.249Z,16.07
2018-11-01T03:19:57.485Z,15.80
2018-11-01T03:22:28.945Z,15.30
2018-11-01T03:25:00.325Z,14.47
2018-11-01T03:27:31.617Z,14.67
2018-11-01T03:30:02.912Z,15.53
2018-11-01T03:32:33.989Z,15.03
2018-11-01T03:35:05.159Z,15.97
2018-11-01T03:37:36.375Z,16.23
2018-11-01T03:40:09.299Z,15.17
2018-11-01T03:42:41.637Z,15.50
2018-11-01T03:45:13.762Z,15.30
2018-11-01T03:47:45.251Z,15.17
2018-11-01T03:50:16.518Z,15.30
2018-11-01T03:52:47.477Z,16.57
2018-11-01T03:55:18.694Z,15.83
2018-11-01T03:57:50.152Z,16.37
2018-11-01T04:00:21.445Z,15.33
2018-11-01T04:02:52.623Z,17.03
2018-11-01T04:05:23.636Z,16.27
2018-11-01T04:07:55.122Z,16.03
2018-11-01T04:10:26.209Z,17.50
2018-11-01T04:12:57.202Z,17.83
2018-11-01T04:15:28.442Z,18.77
2018-11-01T04:17:59.390Z,18.83
2018-11-01T04:20:31.378Z,19.23
2018-11-01T04:23:02.590Z,22.13
2018-11-01T04:25:33.767Z,25.27
2018-11-01T04:28:04.953Z,27.43
2018-11-01T04:30:36.134Z,28.57
2018-11-01T04:33:07.356Z,27.07
2018-11-01T04:35:38.897Z,29.57
2018-11-01T04:38:10.098Z,29.67
2018-11-01T04:40:41.865Z,30.63
2018-11-01T04:43:13.146Z,31.23
2018-11-01T04:45:44.269Z,34.43
2018-11-01T04:48:15.505Z,32.83
2018-11-01T04:50:46.715Z,35.07
2018-11-01T04:53:18.037Z,34.13
2018-11-01T04:55:55.971Z,40.07
2018-11-01T04:58:27.107Z,37.97
2018-11-01T05:00:58.342Z,43.47
2018-11-01T05:03:29.593Z,43.53
2018-11-01T05:06:01.001Z,44.60
2018-11-01T05:08:32.276Z,44.03
2018-11-01T05:11:03.467Z,43.47
2018-11-01T05:13:34.658Z,47.70
2018-11-01T05:16:05.663Z,44.40
2018-11-01T05:18:36.858Z,45.33
2018-11-01T05:21:07.895Z,45.60
2018-11-01T05:23:39.352Z,41.23
2018-11-01T05:26:10.625Z,37.47
2018-11-01T05:28:42.083Z,37.00
2018-11-01T05:31:13.407Z,37.60
2018-11-01T05:33:44.590Z,35.33
2018-11-01T05:36:15.781Z,34.67
2018-11-01T05:38:46.951Z,33.67
2018-11-01T05:41:18.203Z,26.97
2018-11-01T05:43:49.195Z,26.57
2018-11-01T05:46:20.349Z,29.10
2018-11-01T05:48:51.541Z,26.23
2018-11-01T05:51:22.578Z,20.53
2018-11-01T05:53:53.720Z,15.67
2018-11-01T05:56:24.723Z,15.50
2018-11-01T05:58:55.903Z,16.43
2018-11-01T06:01:32.015Z,15.10
2018-11-01T06:04:03.583Z,14.27
2018-11-01T06:06:35.486Z,13.53
2018-11-01T06:09:10.539Z,12.97
2018-11-01T06:11:41.560Z,12.90
2018-11-01T06:14:12.495Z,13.23
2018-11-01T06:16:43.563Z,12.07
2018-11-01T06:19:14.696Z,12.40
2018-11-01T06:21:46.007Z,20.80
2018-11-01T06:24:18.075Z,26.73
2018-11-01T06:26:49.246Z,13.33
2018-11-01T06:29:20.235Z,13.90
2018-11-01T06:31:52.146Z,13.00
2018-11-01T06:34:40.569Z,13.00
2018-11-01T06:37:12.058Z,11.60
2018-11-01T06:39:43.307Z,10.53
2018-11-01T06:42:14.692Z,11.43
2018-11-01T06:44:45.679Z,9.43
2018-11-01T06:47:16.720Z,9.17
2018-11-01T06:49:47.671Z,9.50
2018-11-01T06:52:18.915Z,9.27
2018-11-01T06:54:50.358Z,9.37
2018-11-01T06:57:21.690Z,7.30
2018-11-01T06:59:53.370Z,7.90
2018-11-01T07:02:24.671Z,8.37
2018-11-01T07:04:55.599Z,4.60
2018-11-01T07:07:26.815Z,6.17
2018-11-01T07:10:00.904Z,5.17
2018-11-01T07:12:32.120Z,6.03
2018-11-01T07:15:03.350Z,5.03
2018-11-01T07:17:34.746Z,5.43
2018-11-01T07:20:06.765Z,5.60
2018-11-01T07:22:39.003Z,7.40
2018-11-01T07:25:12.231Z,9.60
2018-11-01T07:27:43.435Z,12.40
2018-11-01T07:30:16.075Z,17.73
2018-11-01T07:32:47.560Z,21.87
2018-11-01T07:35:18.371Z,22.37
2018-11-01T07:37:49.908Z,22.80
2018-11-01T07:40:21.190Z,27.07
2018-11-01T07:42:53.363Z,21.70
2018-11-01T07:45:25.203Z,18.60
2018-11-01T07:47:56.489Z,15.17
2018-11-01T07:50:27.487Z,20.10
2018-11-01T07:52:58.993Z,22.13
2018-11-01T07:55:30.264Z,22.07
2018-11-01T07:58:01.457Z,28.07
2018-11-01T08:00:32.648Z,39.30
2018-11-01T08:03:03.865Z,28.97
2018-11-01T08:05:35.057Z,36.20
2018-11-01T08:08:06.590Z,33.43
2018-11-01T08:10:37.812Z,43.83
2018-11-01T08:13:08.719Z,51.97
2018-11-01T08:15:39.799Z,49.23
2018-11-01T08:18:10.817Z,41.43
2018-11-01T08:20:42.173Z,31.10
2018-11-01T08:23:13.379Z,38.03
2018-11-01T08:25:44.563Z,29.53
2018-11-01T08:28:15.583Z,13.23
2018-11-01T08:30:46.755Z,8.87
2018-11-01T08:33:17.947Z,7.63
2018-11-01T08:35:49.131Z,5.27
2018-11-01T08:38:20.475Z,5.20
2018-11-01T08:40:51.751Z,4.80
2018-11-01T08:43:23.743Z,4.33
2018-11-01T08:45:54.904Z,4.17
2018-11-01T08:48:25.878Z,3.30
2018-11-01T08:50:57.384Z,2.30
2018-11-01T08:53:28.964Z,2.27
2018-11-01T08:56:00.102Z,2.30
2018-11-01T08:58:31.557Z,2.20
2018-11-01T09:01:03.875Z,1.97
2018-11-01T09:03:34.996Z,2.17
2018-11-01T09:06:06.701Z,2.17
2018-11-01T09:08:37.860Z,2.33
2018-11-01T09:11:09.183Z,3.00
2018-11-01T09:13:40.358Z,3.30
2018-11-01T09:16:11.560Z,2.60
2018-11-01T09:18:42.741Z,2.60
2018-11-01T09:21:14.242Z,2.20
2018-11-01T09:23:45.340Z,2.10
2018-11-01T09:26:16.581Z,2.03
2018-11-01T09:28:48.201Z,2.00
2018-11-01T09:31:19.589Z,2.27
2018-11-01T09:33:51.177Z,2.10
2018-11-01T09:36:22.471Z,1.83
2018-11-01T09:38:53.730Z,2.03
2018-11-01T09:41:25.351Z,2.20
2018-11-01T09:43:56.984Z,2.37
2018-11-01T09:46:28.164Z,2.40
2018-11-01T09:48:59.328Z,2.60
2018-11-01T09:51:30.648Z,2.00
2018-11-01T09:54:01.612Z,2.10
2018-11-01T09:56:32.919Z,2.40
2018-11-01T09:59:03.879Z,2.93
2018-11-01T10:01:34.983Z,2.47
2018-11-01T10:04:06.029Z,3.13
2018-11-01T10:06:36.978Z,6.63
2018-11-01T10:09:10.259Z,2.00
2018-11-01T10:11:42.348Z,4.77
2018-11-01T10:14:13.687Z,2.17
2018-11-01T10:16:45.165Z,1.80
2018-11-01T10:19:16.139Z,2.20
2018-11-01T10:21:47.576Z,2.80
2018-11-01T10:24:19.117Z,3.80
2018-11-01T10:26:50.269Z,3.50
2018-11-01T10:29:21.436Z,2.93
2018-11-01T10:31:52.641Z,2.60
2018-11-01T10:34:24.432Z,3.33
2018-11-01T10:36:55.951Z,3.03
2018-11-01T10:39:27.533Z,3.00
2018-11-01T10:41:58.565Z,3.40
2018-11-01T10:44:30.365Z,3.70
2018-11-01T10:47:01.563Z,3.80
2018-11-01T10:49:33.046Z,3.27
2018-11-01T10:52:04.427Z,3.50
2018-11-01T10:54:35.754Z,2.60
2018-11-01T10:57:06.942Z,2.70
2018-11-01T10:59:38.138Z,3.00
2018-11-01T11:02:14.159Z,3.83
2018-11-01T11:04:45.453Z,3.60
2018-11-01T11:07:16.829Z,3.40
2018-11-01T11:09:48.347Z,2.90
2018-11-01T11:12:19.586Z,2.70
2018-11-01T11:14:50.869Z,2.70
2018-11-01T11:17:22.163Z,3.93
2018-11-01T11:19:53.446Z,2.83
2018-11-01T11:22:24.711Z,3.90
2018-11-01T11:24:55.722Z,3.17
2018-11-01T11:27:27.164Z,2.80
2018-11-01T11:29:58.664Z,3.33
2018-11-01T11:32:30.486Z,2.70
2018-11-01T11:35:01.663Z,3.10
2018-11-01T11:37:32.986Z,3.40
2018-11-01T11:40:04.456Z,2.60
2018-11-01T11:42:36.430Z,10.80
2018-11-01T11:45:09.430Z,5.00
2018-11-01T11:47:40.631Z,7.20
2018-11-01T11:50:13.975Z,3.17
2018-11-01T11:52:45.715Z,3.70
2018-11-01T11:55:16.918Z,3.50
2018-11-01T11:57:47.915Z,3.80
2018-11-01T12:00:19.083Z,3.27
2018-11-01T12:02:50.339Z,3.67
2018-11-01T12:05:21.541Z,3.30
2018-11-01T12:07:52.676Z,3.00
2018-11-01T12:10:23.876Z,3.70
2018-11-01T12:12:54.859Z,2.50
2018-11-01T12:15:26.076Z,1.97
2018-11-01T12:17:57.719Z,3.40
2018-11-01T12:20:29.031Z,1.80
2018-11-01T12:23:00.282Z,1.80
2018-11-01T12:25:31.599Z,1.57
2018-11-01T12:28:02.838Z,2.13
2018-11-01T12:30:33.975Z,2.20
2018-11-01T12:33:05.005Z,2.10
2018-11-01T12:35:36.179Z,2.33
2018-11-01T12:38:07.639Z,2.10
2018-11-01T12:40:39.244Z,2.20
2018-11-01T12:43:10.532Z,1.93
2018-11-01T12:45:42.027Z,2.50
2018-11-01T12:48:13.354Z,3.40
2018-11-01T12:50:44.558Z,1.67
2018-11-01T12:53:15.900Z,1.10
2018-11-01T12:55:47.093Z,1.20
2018-11-01T12:58:18.320Z,1.30
2018-11-01T13:00:49.470Z,1.40
2018-11-01T13:03:20.665Z,1.20
2018-11-01T13:05:51.844Z,1.40
2018-11-01T13:08:23.055Z,1.40
2018-11-01T13:10:54.111Z,1.37
2018-11-01T13:14:28.203Z,2.33
2018-11-01T13:16:59.351Z,1.60
2018-11-01T13:19:30.566Z,1.10
2018-11-01T13:22:01.712Z,0.63
2018-11-01T13:24:32.755Z,0.90
2018-11-01T13:27:03.945Z,0.80
2018-11-01T13:29:35.083Z,1.20
2018-11-01T13:32:06.371Z,1.30
2018-11-01T13:34:37.587Z,1.10
2018-11-01T13:37:08.888Z,2.60
2018-11-01T13:39:40.130Z,1.53
2018-11-01T13:42:11.063Z,1.20
2018-11-01T13:44:42.256Z,1.10
2018-11-01T13:47:13.505Z,1.27
2018-11-01T13:49:44.880Z,1.20
2018-11-01T13:52:16.045Z,1.13
2018-11-01T13:54:47.308Z,1.00
2018-11-01T13:57:18.907Z,1.20
2018-11-01T13:59:50.002Z,1.00
2018-11-01T14:02:21.182Z,1.10
2018-11-01T14:04:52.366Z,0.87
2018-11-01T14:07:23.580Z,0.90
2018-11-01T14:09:54.556Z,1.00
2018-11-01T14:12:25.776Z,0.97
2018-11-01T14:14:58.286Z,0.80
2018-11-01T14:17:29.380Z,0.90
2018-11-01T14:20:00.511Z,1.10
2018-11-01T14:22:31.701Z,1.10
2018-11-01T14:25:02.935Z,0.90
2018-11-01T14:27:34.084Z,1.10
2018-11-01T14:30:06.196Z,1.10
2018-11-01T14:32:37.464Z,1.40
2018-11-01T14:35:09.173Z,1.70
2018-11-01T14:37:40.922Z,1.23
2018-11-01T14:40:13.218Z,1.30
2018-11-01T14:42:44.707Z,1.60
2018-11-01T14:45:15.982Z,1.70
2018-11-01T14:47:46.971Z,2.10
2018-11-01T14:50:18.176Z,1.20
2018-11-01T14:52:49.646Z,1.57
2018-11-01T14:55:21.178Z,1.23
2018-11-01T14:57:52.591Z,1.00
2018-11-01T15:00:22.723Z,1.20
2018-11-01T15:02:53.907Z,1.20
2018-11-01T15:05:24.927Z,1.20
2018-11-01T15:07:56.177Z,1.10
2018-11-01T15:10:27.835Z,1.10
2018-11-01T15:12:58.932Z,1.10
2018-11-01T15:15:30.301Z,1.27
2018-11-01T15:18:01.284Z,1.30
2018-11-01T15:20:32.463Z,1.60
2018-11-01T15:23:03.657Z,1.20
2018-11-01T15:25:35.283Z,1.30
2018-11-01T15:28:06.318Z,1.50
2018-11-01T15:30:37.442Z,1.40
2018-11-01T15:33:08.641Z,1.20
2018-11-01T15:35:40.710Z,1.50
2018-11-01T15:38:12.583Z,1.47
2018-11-01T15:40:44.464Z,1.33
2018-11-01T15:43:15.603Z,1.40
2018-11-01T15:45:47.442Z,1.60
2018-11-01T15:48:18.838Z,1.43
2018-11-01T15:50:50.258Z,1.50
2018-11-01T15:53:21.302Z,5.57
2018-11-01T15:55:52.564Z,1.60
2018-11-01T15:58:23.788Z,1.80
2018-11-01T16:00:56.934Z,1.60
2018-11-01T16:03:28.298Z,1.40
2018-11-01T16:05:59.619Z,2.20
2018-11-01T16:08:30.810Z,1.80
2018-11-01T16:11:01.835Z,2.63
2018-11-01T16:13:33.047Z,2.50
2018-11-01T16:16:04.269Z,2.57
2018-11-01T16:18:35.867Z,3.13
2018-11-01T16:21:07.042Z,2.23
2018-11-01T16:23:38.366Z,1.73
2018-11-01T16:26:09.741Z,4.50
2018-11-01T16:28:40.967Z,6.13
2018-11-01T16:31:12.136Z,13.50
2018-11-01T16:33:43.642Z,9.10
2018-11-01T16:36:14.765Z,7.63
2018-11-01T16:38:45.910Z,6.13
2018-11-01T16:41:17.095Z,3.83
2018-11-01T16:43:48.832Z,9.57
2018-11-01T16:46:20.472Z,8.80
2018-11-01T16:48:51.651Z,7.63
2018-11-01T16:51:23.141Z,6.57
2018-11-01T16:53:54.939Z,5.63
2018-11-01T16:56:26.238Z,4.80
2018-11-01T16:58:57.415Z,4.87
2018-11-01T17:01:28.600Z,6.50
2018-11-01T17:03:59.619Z,5.93
2018-11-01T17:06:30.778Z,5.70
2018-11-01T17:09:01.977Z,5.70
2018-11-01T17:11:32.976Z,6.97
2018-11-01T17:14:04.536Z,13.37
2018-11-01T17:16:36.170Z,20.67
2018-11-01T17:19:09.019Z,39.70
2018-11-01T17:21:40.293Z,40.97
2018-11-01T17:24:11.507Z,46.37
2018-11-01T17:26:42.487Z,50.83
2018-11-01T17:29:13.710Z,53.53
2018-11-01T17:31:44.677Z,59.87
2018-11-01T17:34:15.747Z,51.30
2018-11-01T17:36:47.098Z,44.00
2018-11-01T17:39:18.051Z,39.37
2018-11-01T17:41:49.287Z,39.30
2018-11-01T17:44:20.749Z,36.30
2018-11-01T17:46:52.025Z,34.67
2018-11-01T17:49:23.209Z,32.10
2018-11-01T17:51:55.512Z,30.60
2018-11-01T17:54:26.812Z,31.37
2018-11-01T17:56:58.656Z,28.37
2018-11-01T17:59:29.952Z,27.80
2018-11-01T18:02:01.170Z,31.67
2018-11-01T18:04:32.169Z,54.77
2018-11-01T18:07:03.394Z,45.93
2018-11-01T18:09:35.000Z,41.43
2018-11-01T18:12:06.489Z,39.13
2018-11-01T18:14:38.024Z,33.50
2018-11-01T18:17:09.580Z,31.63
2018-11-01T18:19:40.859Z,42.60
2018-11-01T18:22:11.851Z,40.17
2018-11-01T18:24:43.053Z,39.40
2018-11-01T18:27:14.244Z,34.60
2018-11-01T18:29:46.107Z,23.03
2018-11-01T18:32:17.477Z,19.10
2018-11-01T18:34:48.609Z,15.27
2018-11-01T18:37:19.858Z,16.20
2018-11-01T18:39:51.174Z,18.13
2018-11-01T18:42:22.487Z,19.10
2018-11-01T18:44:53.564Z,22.70
2018-11-01T18:47:24.787Z,19.57
2018-11-01T18:49:55.939Z,21.03
2018-11-01T18:52:27.123Z,26.10
2018-11-01T18:54:58.136Z,30.60
2018-11-01T18:57:30.043Z,28.87
2018-11-01T19:00:01.305Z,24.47
2018-11-01T19:02:32.903Z,21.50
2018-11-01T19:05:04.112Z,17.13
2018-11-01T19:07:35.365Z,16.20
2018-11-01T19:10:07.254Z,15.17
2018-11-01T19:12:38.947Z,13.60
2018-11-01T19:15:11.622Z,12.63
2018-11-01T19:17:42.982Z,12.33
2018-11-01T19:20:14.797Z,11.10
2018-11-01T19:22:45.959Z,10.70
2018-11-01T19:25:17.160Z,10.30
2018-11-01T19:27:48.550Z,14.67
2018-11-01T19:30:19.747Z,22.83
2018-11-01T19:32:50.871Z,20.80
2018-11-01T19:35:21.967Z,18.47
2018-11-01T19:37:53.347Z,16.60
2018-11-01T19:40:24.606Z,15.47
2018-11-01T19:42:55.708Z,15.10
2018-11-01T19:45:26.910Z,23.53
2018-11-01T19:47:58.823Z,34.47
2018-11-01T19:50:30.102Z,26.50
2018-11-01T19:53:01.459Z,20.53
2018-11-01T19:55:32.445Z,20.97
2018-11-01T19:58:03.997Z,18.37
2018-11-01T20:00:35.026Z,17.50
2018-11-01T20:03:06.271Z,15.03
2018-11-01T20:05:37.427Z,12.67
2018-11-01T20:08:08.587Z,12.43
2018-11-01T20:10:40.485Z,15.57
2018-11-01T20:13:11.774Z,16.43
2018-11-01T20:15:42.959Z,16.70
2018-11-01T20:18:14.592Z,15.47
2018-11-01T20:20:46.051Z,15.97
2018-11-01T20:23:17.423Z,14.47
2018-11-01T20:25:48.620Z,14.57
2018-11-01T20:28:20.168Z,14.70
2018-11-01T20:30:51.516Z,14.73
2018-11-01T20:33:22.517Z,14.57
2018-11-01T20:35:53.691Z,16.73
2018-11-01T20:38:25.006Z,16.10
2018-11-01T20:40:56.255Z,17.33
2018-11-01T20:43:27.262Z,18.33
2018-11-01T20:45:58.251Z,20.30
2018-11-01T20:48:29.435Z,19.07
2018-11-01T20:51:00.758Z,18.43
2018-11-01T20:53:33.372Z,18.23
2018-11-01T20:56:04.612Z,18.20
2018-11-01T20:58:35.692Z,18.00
2018-11-01T21:01:07.014Z,19.13
2018-11-01T21:03:37.969Z,19.10
2018-11-01T21:06:09.166Z,19.97
2018-11-01T21:08:40.359Z,24.03
2018-11-01T21:11:11.564Z,36.70
2018-11-01T21:13:42.700Z,33.37
2018-11-01T21:16:13.780Z,37.60
2018-11-01T21:18:44.993Z,36.63
2018-11-01T21:21:16.338Z,35.63
2018-11-01T21:23:47.503Z,38.27
2018-11-01T21:26:18.691Z,38.53
2018-11-01T21:28:50.036Z,36.30
2018-11-01T21:31:21.279Z,35.70
2018-11-01T21:33:52.283Z,34.87
2018-11-01T21:36:23.471Z,34.10
2018-11-01T21:38:54.651Z,35.07
2018-11-01T21:41:25.903Z,34.70
2018-11-01T21:43:57.257Z,36.07
2018-11-01T21:46:28.830Z,33.43
2018-11-01T21:48:59.993Z,32.50
2018-11-01T21:51:31.190Z,31.97
2018-11-01T21:54:02.697Z,36.23
2018-11-01T21:56:34.279Z,32.80
2018-11-01T21:59:05.635Z,39.23
2018-11-01T22:01:37.240Z,35.17
2018-11-01T22:04:08.346Z,36.80
2018-11-01T22:06:39.558Z,35.87
2018-11-01T22:09:10.761Z,33.37
2018-11-01T22:11:42.019Z,36.10
2018-11-01T22:14:13.090Z,47.03
2018-11-01T22:16:44.095Z,42.70
2018-11-01T22:19:15.408Z,40.53
2018-11-01T22:21:46.620Z,38.10
2018-11-01T22:24:17.704Z,37.47
2018-11-01T22:26:48.872Z,37.53
2018-11-01T22:29:20.082Z,37.43
2018-11-01T22:31:51.164Z,30.13
2018-11-01T22:34:22.744Z,31.80
2018-11-01T22:36:54.335Z,45.63
2018-11-01T22:39:25.605Z,54.33
2018-11-01T22:41:56.843Z,52.73
2018-11-01T22:44:27.996Z,40.63
2018-11-01T22:46:59.121Z,38.10
2018-11-01T22:49:30.229Z,32.17
2018-11-01T22:52:01.198Z,34.13
2018-11-01T22:54:32.460Z,82.07
2018-11-01T22:57:03.785Z,92.57
2018-11-01T22:59:34.963Z,70.93
2018-11-01T23:02:06.125Z,40.60
2018-11-01T23:04:37.145Z,30.93
2018-11-01T23:07:08.423Z,25.83
2018-11-01T23:09:39.568Z,23.80
2018-11-01T23:12:10.739Z,22.43
2018-11-01T23:14:42.743Z,22.17
2018-11-01T23:17:14.389Z,21.23
2018-11-01T23:19:46.022Z,19.43
2018-11-01T23:22:17.526Z,21.70
2018-11-01T23:24:48.656Z,20.03
2018-11-01T23:27:19.656Z,21.50
2018-11-01T23:29:51.351Z,22.47
2018-11-01T23:32:23.049Z,24.67
2018-11-01T23:34:54.018Z,25.33
2018-11-01T23:37:30.171Z,25.90
2018-11-01T23:40:06.088Z,24.53
2018-11-01T23:42:48.746Z,21.80
2018-11-01T23:45:25.111Z,21.47
2018-11-01T23:47:59.903Z,23.17
2018-11-01T23:51:05.688Z,20.00
2018-11-01T23:53:46.244Z,20.50
2018-11-01T23:56:17.690Z,20.73
2018-11-01T23:58:49.110Z,28.77
